Terminal Aerodrome Forecast
Issued by NWS

Home | Current Version | Previous Version | Text Only | Print | Product List | Glossary On
Versions: 1 2 3 4 5 6 7 8 9 10 11 12 13 14 15 16 17 18 19 20 21 22 23 24 25 26 27 28 29 30 31 32 33 34 35 36 37 38 39 40 41 42
439
FTUS41 KGYX 081001 AAD
TAFLEB
TAF AMD
KLEB 081001Z 0810/0906 00000KT 1/4SM FZFG VV001
      TEMPO 0811/0812 1/2SM FZFG
     FM081200 VRB03KT 5SM BR BKN030 BKN100
     FM081300 25004KT P6SM SCT030 BKN100
     FM081600 25007KT P6SM BKN045=

USA.gov is the U.S. government's official web portal to all federal, state and local government web resources and services.